Impacts METAR Board
IDs:

KIAD - Washington/Dulles In, VA, US

Updated at: 0900 UTC 19 Jul 2018
Potential Impact None Slight Moderate High
Time 18/21Z 18/22Z 18/23Z 19/00Z 19/01Z 19/02Z 19/03Z 19/04Z 19/05Z 19/06Z 19/07Z 19/08Z 19/09Z
Temp83 83 83 81 75 73 71 66 69 64 62 62 63
Dewpt57 56 55 57 59 60 60 61 60 61 60 60 60
Altim29.96 29.95 29.96 29.97 29.98 29.99 30.00 30.01 30.02 30.04 30.04 30.05 30.06
VIS10 10 10 10 10 10 10 10 10 10 10 10 10
CIG-- -- -- -- -- -- -- -- -- -- -- -- 80
CoverSCTFEWCLRFEWFEWCLRCLRCLRCLRFEWSCTSCTBKN
FltCatVFRVFRVFRVFRVFRVFRVFRVFRVFRVFRVFRVFRVFR
WX--------------------------
WDir032031031031028030003100000
WSpd0 10 9 7 6 4 5 0 5 0 0 0 0
WGst-- -- -- -- -- -- -- -- -- -- -- -- --
Raw hourly METARs
KIAD 182052Z 00000KT 10SM SCT065 28/14 A2996 RMK AO2 SLP142 T02830139 58005
KIAD 182152Z 32010KT 10SM FEW070 28/13 A2995 RMK AO2 SLP139 T02830133
KIAD 182252Z 31009KT 10SM CLR 28/13 A2996 RMK AO2 SLP142 T02830128
KIAD 182352Z 31007KT 10SM FEW080 27/14 A2997 RMK AO2 SLP144 T02720139 10294 20272 53002
KIAD 190052Z 31006KT 10SM FEW080 24/15 A2998 RMK AO2 SLP148 T02390150
KIAD 190152Z 28004KT 10SM CLR 23/16 A2999 RMK AO2 SLP154 T02280156
KIAD 190252Z 30005KT 10SM CLR 22/16 A3000 RMK AO2 SLP156 T02170156 51012
KIAD 190352Z 00000KT 10SM CLR 19/16 A3001 RMK AO2 SLP160 T01890161
KIAD 190452Z 31005KT 10SM CLR 21/16 A3002 RMK AO2 SLP163 T02060156 402940178
KIAD 190552Z 00000KT 10SM FEW080 18/16 A3004 RMK AO2 SLP168 T01780161 10272 20178 53013
KIAD 190652Z 00000KT 10SM SCT070 17/16 A3004 RMK AO2 SLP170 T01670156
KIAD 190752Z 00000KT 10SM SCT080 17/16 A3005 RMK AO2 SLP172 T01670156
KIAD 190852Z 00000KT 10SM BKN080 17/16 A3006 RMK AO2 SLP175 T01720156 53007



Page loaded:  09:33 UTC  |   02:33 AM Pacific  |   03:33 AM Mountain  |   04:33 AM Central  |   05:33 AM Eastern

 

ADVISORIES

FORECASTS

FORECASTS

OBSERVATIONS

USER TOOLS

ABOUT US